Time;durP1;ratioP1;P1;durP2;ratioP2;P2;SDS_P1;SDS_P2;PMS_P1;PMS_P2;Temp;Humidity;BMP_temperature;BMP_pressure;BME280_temperature;BME280_humidity;BME280_pressure;Samples;Min_cycle;Max_cycle;Signal;HPM_P1;HPM_P2
2022/04/07 00:00:07;;;;;;;17.48;3.65;;;;;;;;;;5115667;28;20024;-95
2022/04/07 00:02:33;;;;;;;11.25;2.92;;;;;;;;;;5124198;28;20027;-90
2022/04/07 00:04:59;;;;;;;16.35;2.88;;;;;;;;;;5119416;28;20143;-88
2022/04/07 00:07:25;;;;;;;17.75;2.95;;;;;;;;;;5125581;28;20496;-92
2022/04/07 00:09:51;;;;;;;18.23;3.50;;;;;;;;;;5114587;28;20059;-91
2022/04/07 00:12:17;;;;;;;15.07;3.22;;;;;;;;;;5113645;28;20058;-93
2022/04/07 00:14:43;;;;;;;16.90;3.20;;;;;;;;;;5113305;28;20027;-91
2022/04/07 00:17:09;;;;;;;16.42;3.08;;;;;;;;;;5112759;28;20120;-90
2022/04/07 00:19:35;;;;;;;24.70;3.47;;;;;;;;;;5113273;28;20019;-92
2022/04/07 00:22:01;;;;;;;29.65;13.07;;;;;;;;;;5113153;28;20052;-91
2022/04/07 00:24:27;;;;;;;163.35;66.93;;;;;;;;;;5112901;28;20139;-91
2022/04/07 00:26:53;;;;;;;20.80;3.00;;;;;;;;;;5113213;28;20123;-93
2022/04/07 00:29:19;;;;;;;17.80;3.28;;;;;;;;;;5113170;28;20444;-91
2022/04/07 00:31:45;;;;;;;30.75;4.07;;;;;;;;;;5112929;28;20115;-90
2022/04/07 00:34:12;;;;;;;19.38;3.28;;;;;;;;;;5114044;28;20020;-95
2022/04/07 00:36:39;;;;;;;22.27;3.42;;;;;;;;;;5113633;28;20019;-90
2022/04/07 00:39:05;;;;;;;20.17;3.75;;;;;;;;;;5113585;28;20049;-86
2022/04/07 00:41:31;;;;;;;22.42;3.50;;;;;;;;;;5113022;28;20455;-90
2022/04/07 00:43:57;;;;;;;15.90;3.92;;;;;;;;;;5112738;28;20065;-90
2022/04/07 00:46:23;;;;;;;21.00;3.67;;;;;;;;;;5113141;28;20047;-90
2022/04/07 00:48:49;;;;;;;16.83;3.55;;;;;;;;;;5112530;28;20019;-88
2022/04/07 00:51:15;;;;;;;23.58;3.78;;;;;;;;;;5111643;28;20027;-90
2022/04/07 00:53:42;;;;;;;21.83;4.30;;;;;;;;;;5113513;28;20091;-90
2022/04/07 00:56:10;;;;;;;16.45;3.72;;;;;;;;;;5112501;28;20047;-92
2022/04/07 00:58:36;;;;;;;;;;;;;;;;;;5112276;28;20028;-85
2022/04/07 01:01:02;;;;;;;22.08;3.88;;;;;;;;;;5112237;28;19911;-86
2022/04/07 01:03:28;;;;;;;14.43;3.22;;;;;;;;;;5112332;28;20028;-87
2022/04/07 01:05:54;;;;;;;25.08;4.07;;;;;;;;;;5111784;28;20055;-86
2022/04/07 01:08:21;;;;;;;21.23;4.20;;;;;;;;;;5110818;28;20103;-82
2022/04/07 01:10:47;;;;;;;27.23;4.72;;;;;;;;;;5111605;28;20020;-81
2022/04/07 01:13:15;;;;;;;21.23;3.70;;;;;;;;;;5112557;28;20035;-83
2022/04/07 01:15:41;;;;;;;15.25;4.97;;;;;;;;;;5112533;28;20030;-86
2022/04/07 01:18:07;;;;;;;14.30;3.42;;;;;;;;;;5111516;28;20020;-88
2022/04/07 01:20:34;;;;;;;12.82;3.38;;;;;;;;;;5111539;28;20059;-89
2022/04/07 01:23:00;;;;;;;7.72;2.72;;;;;;;;;;5111593;28;20050;-84
2022/04/07 01:25:29;;;;;;;6.32;1.83;;;;;;;;;;5112022;28;20104;-85
2022/04/07 01:27:55;;;;;;;5.38;2.30;;;;;;;;;;5111424;28;20027;-82
2022/04/07 01:30:21;;;;;;;6.55;2.20;;;;;;;;;;5111313;28;20479;-86
2022/04/07 01:32:52;;;;;;;7.40;2.08;;;;;;;;;;5111407;28;20027;-91
2022/04/07 01:35:20;;;;;;;4.95;1.77;;;;;;;;;;5111449;28;20081;-85
2022/04/07 01:37:47;;;;;;;7.13;1.67;;;;;;;;;;5111432;28;20027;-82
2022/04/07 01:40:16;;;;;;;6.18;1.70;;;;;;;;;;5112085;28;20034;-84
2022/04/07 01:42:45;;;;;;;3.30;1.35;;;;;;;;;;5110635;28;20479;-89
2022/04/07 01:45:11;;;;;;;2.63;1.20;;;;;;;;;;5111182;28;20120;-89
2022/04/07 01:47:40;;;;;;;3.15;1.30;;;;;;;;;;5110083;28;20467;-91
2022/04/07 01:50:07;;;;;;;5.57;1.10;;;;;;;;;;5111146;28;20027;-86
2022/04/07 01:52:34;;;;;;;3.85;1.05;;;;;;;;;;5109764;28;20069;-89
2022/04/07 01:55:01;;;;;;;2.83;0.95;;;;;;;;;;5110885;28;20032;-89
2022/04/07 01:57:27;;;;;;;1.77;0.85;;;;;;;;;;5110710;28;20030;-85
2022/04/07 01:59:54;;;;;;;2.90;1.00;;;;;;;;;;5109326;28;20035;-86
2022/04/07 02:02:24;;;;;;;2.00;0.90;;;;;;;;;;5110687;28;20058;-87
2022/04/07 02:04:52;;;;;;;1.23;0.70;;;;;;;;;;5110746;28;20114;-86
2022/04/07 02:07:19;;;;;;;1.23;0.73;;;;;;;;;;5110585;28;20085;-86
2022/04/07 02:09:45;;;;;;;0.93;0.80;;;;;;;;;;5110590;28;20020;-85
2022/04/07 02:12:11;;;;;;;2.85;0.90;;;;;;;;;;5110505;28;20028;-88
2022/04/07 02:14:37;;;;;;;4.70;0.75;;;;;;;;;;5110727;28;20023;-87
2022/04/07 02:17:03;;;;;;;4.53;1.08;;;;;;;;;;5110628;28;20024;-88
2022/04/07 02:19:30;;;;;;;3.55;1.00;;;;;;;;;;5110629;28;20042;-89
2022/04/07 02:21:56;;;;;;;3.35;1.17;;;;;;;;;;5110485;28;20023;-84
2022/04/07 02:24:22;;;;;;;4.72;1.55;;;;;;;;;;5108769;28;20032;-86
2022/04/07 02:26:48;;;;;;;6.97;1.83;;;;;;;;;;5109750;28;20027;-87
2022/04/07 02:29:14;;;;;;;10.45;2.45;;;;;;;;;;5110969;28;20467;-84
2022/04/07 02:31:40;;;;;;;10.95;2.33;;;;;;;;;;5109108;28;20032;-84
2022/04/07 02:34:06;;;;;;;11.00;2.20;;;;;;;;;;5111371;28;20016;-88
2022/04/07 02:36:32;;;;;;;119.43;44.22;;;;;;;;;;5114113;28;20463;-89
2022/04/07 02:38:59;;;;;;;313.95;121.22;;;;;;;;;;5113963;28;20027;-87
2022/04/07 02:41:25;;;;;;;272.27;107.88;;;;;;;;;;5092398;28;20027;-88
2022/04/07 02:43:51;;;;;;;349.33;132.90;;;;;;;;;;5110268;28;20033;-83
2022/04/07 02:46:17;;;;;;;277.63;109.90;;;;;;;;;;5110945;28;20036;-85
2022/04/07 02:48:43;;;;;;;189.43;79.95;;;;;;;;;;5110105;28;20523;-89
2022/04/07 02:51:09;;;;;;;223.05;89.97;;;;;;;;;;5109856;28;20034;-83
2022/04/07 02:53:35;;;;;;;293.90;109.10;;;;;;;;;;5109955;28;20023;-85
2022/04/07 02:56:01;;;;;;;275.30;102.80;;;;;;;;;;5109928;28;20043;-86
2022/04/07 02:58:27;;;;;;;288.50;105.40;;;;;;;;;;5109951;28;20016;-86
2022/04/07 03:00:53;;;;;;;417.70;143.18;;;;;;;;;;5109874;28;20039;-84
2022/04/07 03:03:19;;;;;;;458.70;157.30;;;;;;;;;;5110843;28;20076;-85
2022/04/07 03:05:45;;;;;;;352.42;123.72;;;;;;;;;;5091480;28;20035;-85
2022/04/07 03:08:12;;;;;;;319.88;111.78;;;;;;;;;;5109674;28;20515;-85
2022/04/07 03:10:38;;;;;;;342.10;122.43;;;;;;;;;;5109732;28;20084;-84
2022/04/07 03:13:04;;;;;;;331.65;118.18;;;;;;;;;;5110143;28;20065;-86
2022/04/07 03:15:30;;;;;;;516.10;180.23;;;;;;;;;;5111016;28;20024;-90
2022/04/07 03:17:56;;;;;;;418.25;142.45;;;;;;;;;;5109546;28;20416;-87
2022/04/07 03:20:22;;;;;;;397.92;134.80;;;;;;;;;;5109561;28;20464;-87
2022/04/07 03:22:48;;;;;;;527.25;183.32;;;;;;;;;;5110815;28;20039;-86
2022/04/07 03:25:14;;;;;;;578.50;211.13;;;;;;;;;;5110018;28;20040;-89
2022/04/07 03:27:40;;;;;;;656.65;254.27;;;;;;;;;;5112122;28;20435;-93
2022/04/07 03:30:07;;;;;;;574.63;208.65;;;;;;;;;;5093601;28;20028;-90
2022/04/07 03:32:33;;;;;;;604.10;223.52;;;;;;;;;;5114646;28;20023;-87
2022/04/07 03:34:59;;;;;;;557.38;200.27;;;;;;;;;;5113331;28;20015;-89
2022/04/07 03:37:25;;;;;;;332.38;118.45;;;;;;;;;;5111888;28;20035;-89
2022/04/07 03:39:51;;;;;;;338.70;119.88;;;;;;;;;;5110699;28;20016;-92
2022/04/07 03:42:17;;;;;;;347.52;121.78;;;;;;;;;;5091025;28;20034;-87
2022/04/07 03:44:43;;;;;;;483.45;163.63;;;;;;;;;;5091109;28;20518;-88
2022/04/07 03:47:09;;;;;;;66.57;21.10;;;;;;;;;;5110831;28;20087;-90
2022/04/07 03:49:35;;;;;;;266.02;92.68;;;;;;;;;;5090898;28;20020;-89
2022/04/07 03:52:01;;;;;;;215.18;79.18;;;;;;;;;;5090913;28;20038;-91
2022/04/07 03:54:27;;;;;;;278.73;97.85;;;;;;;;;;5090807;28;20399;-90
2022/04/07 03:56:53;;;;;;;250.23;90.70;;;;;;;;;;5090982;28;20020;-90
2022/04/07 03:59:19;;;;;;;251.48;91.18;;;;;;;;;;5109682;28;20093;-89
2022/04/07 04:01:45;;;;;;;319.10;109.80;;;;;;;;;;5109163;28;20030;-88
2022/04/07 04:04:11;;;;;;;316.77;109.75;;;;;;;;;;5108955;28;20027;-90
2022/04/07 04:06:37;;;;;;;347.45;115.93;;;;;;;;;;5109013;28;20035;-90
2022/04/07 04:09:03;;;;;;;360.63;120.55;;;;;;;;;;5108914;28;20144;-89
2022/04/07 04:11:30;;;;;;;360.00;121.00;;;;;;;;;;5109003;28;20040;-89
2022/04/07 04:13:56;;;;;;;362.27;122.25;;;;;;;;;;5098834;28;20020;-89
2022/04/07 04:16:23;;;;;;;378.60;125.53;;;;;;;;;;5090174;28;20443;-90
2022/04/07 04:18:49;;;;;;;372.45;124.68;;;;;;;;;;5108535;28;20104;-89
2022/04/07 04:21:15;;;;;;;374.00;125.53;;;;;;;;;;5108138;28;20024;-90
2022/04/07 04:23:41;;;;;;;412.00;135.45;;;;;;;;;;5090020;28;20020;-90
2022/04/07 04:26:07;;;;;;;341.02;115.05;;;;;;;;;;5089822;28;20491;-90
2022/04/07 04:28:33;;;;;;;348.38;116.22;;;;;;;;;;5101942;28;20035;-89
2022/04/07 04:30:59;;;;;;;350.75;117.85;;;;;;;;;;5089803;28;20038;-89
2022/04/07 04:33:25;;;;;;;404.85;131.85;;;;;;;;;;5092830;28;20020;-89
2022/04/07 04:35:52;;;;;;;377.83;124.25;;;;;;;;;;5113340;28;20027;-89
2022/04/07 04:38:18;;;;;;;454.20;145.77;;;;;;;;;;5112397;28;20016;-90
2022/04/07 04:40:44;;;;;;;467.50;150.93;;;;;;;;;;5094788;28;20118;-90
2022/04/07 04:43:10;;;;;;;457.45;147.45;;;;;;;;;;5094285;28;20027;-91
2022/04/07 04:45:36;;;;;;;456.88;147.02;;;;;;;;;;5112349;28;20027;-89
2022/04/07 04:48:03;;;;;;;452.80;146.35;;;;;;;;;;5112439;28;20016;-92
2022/04/07 04:50:29;;;;;;;419.33;137.93;;;;;;;;;;5112808;28;20030;-89
2022/04/07 04:52:55;;;;;;;388.85;128.38;;;;;;;;;;5112522;28;20023;-91
2022/04/07 04:55:21;;;;;;;374.02;125.65;;;;;;;;;;5094916;28;20051;-90
2022/04/07 04:57:50;;;;;;;403.23;133.63;;;;;;;;;;5112535;28;20058;-91
2022/04/07 05:00:16;;;;;;;397.55;130.30;;;;;;;;;;5094282;28;20035;-89
2022/04/07 05:02:42;;;;;;;369.35;123.93;;;;;;;;;;5112239;28;20024;-89
2022/04/07 05:05:08;;;;;;;363.92;122.80;;;;;;;;;;5111735;28;20028;-89
2022/04/07 05:07:34;;;;;;;351.25;119.28;;;;;;;;;;5112620;28;20024;-88
2022/04/07 05:10:00;;;;;;;353.48;119.90;;;;;;;;;;5111959;28;20028;-88
2022/04/07 05:12:26;;;;;;;378.35;127.35;;;;;;;;;;5111530;28;20028;-89
2022/04/07 05:14:53;;;;;;;365.77;125.07;;;;;;;;;;5093492;28;20391;-89
2022/04/07 05:17:20;;;;;;;387.00;130.68;;;;;;;;;;5110143;28;20087;-89
2022/04/07 05:19:46;;;;;;;342.40;116.45;;;;;;;;;;5110709;28;20259;-88
2022/04/07 05:22:12;;;;;;;327.08;113.72;;;;;;;;;;5111531;28;20027;-89
2022/04/07 05:24:38;;;;;;;345.25;118.30;;;;;;;;;;5110083;28;20509;-89
2022/04/07 05:27:04;;;;;;;325.35;114.38;;;;;;;;;;5111200;28;20110;-88
2022/04/07 05:29:30;;;;;;;322.15;112.10;;;;;;;;;;5110908;28;20048;-88
2022/04/07 05:31:56;;;;;;;312.35;108.95;;;;;;;;;;5111623;28;20032;-88
2022/04/07 05:34:22;;;;;;;332.50;116.10;;;;;;;;;;5112257;28;20019;-89
2022/04/07 05:36:48;;;;;;;316.27;112.25;;;;;;;;;;5111015;28;20026;-89
2022/04/07 05:39:15;;;;;;;333.88;115.88;;;;;;;;;;5111272;28;20106;-88
2022/04/07 05:41:41;;;;;;;319.55;112.40;;;;;;;;;;5092868;28;20140;-88
2022/04/07 05:44:07;;;;;;;327.80;114.25;;;;;;;;;;5111211;28;20041;-88
2022/04/07 05:46:33;;;;;;;281.20;95.55;;;;;;;;;;5111088;28;20032;-88
2022/04/07 05:48:59;;;;;;;303.15;106.53;;;;;;;;;;5111081;28;20047;-88
2022/04/07 05:51:25;;;;;;;325.95;113.85;;;;;;;;;;5093952;28;20026;-87
2022/04/07 05:53:51;;;;;;;322.85;112.47;;;;;;;;;;5092800;28;20016;-88
2022/04/07 05:56:17;;;;;;;329.13;113.85;;;;;;;;;;5110938;28;20027;-89
2022/04/07 05:58:43;;;;;;;343.63;118.00;;;;;;;;;;5092417;28;20387;-88
2022/04/07 06:01:09;;;;;;;313.05;110.35;;;;;;;;;;5111154;28;20502;-87
2022/04/07 06:03:36;;;;;;;312.52;110.55;;;;;;;;;;5092550;28;20168;-88
2022/04/07 06:06:02;;;;;;;290.27;103.57;;;;;;;;;;5110639;28;20039;-87
2022/04/07 06:08:28;;;;;;;293.80;103.50;;;;;;;;;;5111041;28;20030;-88
2022/04/07 06:10:54;;;;;;;267.27;96.38;;;;;;;;;;5111496;28;20046;-89
2022/04/07 06:13:20;;;;;;;259.30;93.50;;;;;;;;;;5110685;28;20020;-89
2022/04/07 06:15:47;;;;;;;251.07;91.47;;;;;;;;;;5092259;28;20023;-88
2022/04/07 06:18:13;;;;;;;277.55;100.18;;;;;;;;;;5110611;28;20022;-86
2022/04/07 06:20:40;;;;;;;241.82;89.00;;;;;;;;;;5110735;28;20493;-89
2022/04/07 06:23:06;;;;;;;282.23;100.57;;;;;;;;;;5110565;28;20016;-87
2022/04/07 06:25:32;;;;;;;249.23;91.63;;;;;;;;;;5110218;28;20043;-89
2022/04/07 06:28:02;;;;;;;242.55;89.22;;;;;;;;;;5092948;28;20072;-87
2022/04/07 06:30:29;;;;;;;194.85;75.93;;;;;;;;;;5111104;28;20020;-88
2022/04/07 06:32:56;;;;;;;246.20;91.60;;;;;;;;;;5093075;28;20386;-88
2022/04/07 06:35:22;;;;;;;250.63;91.95;;;;;;;;;;5092075;28;20020;-87
2022/04/07 06:37:52;;;;;;;241.98;88.68;;;;;;;;;;5110304;28;20027;-87
2022/04/07 06:40:19;;;;;;;253.63;92.88;;;;;;;;;;5110183;28;20012;-89
2022/04/07 06:42:45;;;;;;;243.07;89.57;;;;;;;;;;5091995;28;20030;-87
2022/04/07 06:45:11;;;;;;;225.13;84.80;;;;;;;;;;5110023;28;20488;-87
2022/04/07 06:47:42;;;;;;;227.50;84.68;;;;;;;;;;5110091;28;20024;-89
2022/04/07 06:50:13;;;;;;;161.52;66.47;;;;;;;;;;5091678;28;20024;-88
2022/04/07 06:52:39;;;;;;;196.65;77.05;;;;;;;;;;5110029;28;20031;-87
2022/04/07 06:55:06;;;;;;;174.82;71.32;;;;;;;;;;5109507;28;20028;-88
2022/04/07 06:57:32;;;;;;;151.95;63.17;;;;;;;;;;5109909;28;20102;-88
2022/04/07 06:59:58;;;;;;;134.30;58.53;;;;;;;;;;5110622;28;20391;-87
2022/04/07 07:02:24;;;;;;;132.60;58.10;;;;;;;;;;5092111;28;20118;-87
2022/04/07 07:04:50;;;;;;;56.20;33.10;;;;;;;;;;5109585;28;20037;-89
2022/04/07 07:07:17;;;;;;;53.35;31.25;;;;;;;;;;5091530;28;20376;-88
2022/04/07 07:09:43;;;;;;;47.40;30.13;;;;;;;;;;5109593;28;20502;-88
2022/04/07 07:12:09;;;;;;;53.42;33.08;;;;;;;;;;5109667;28;20028;-88
2022/04/07 07:14:35;;;;;;;47.08;30.83;;;;;;;;;;5091405;28;20027;-88
2022/04/07 07:17:01;;;;;;;47.90;25.88;;;;;;;;;;5110402;28;20483;-87
2022/04/07 07:19:28;;;;;;;57.40;35.15;;;;;;;;;;5092127;28;20065;-87
2022/04/07 07:21:54;;;;;;;56.53;33.05;;;;;;;;;;5091254;28;20055;-89
2022/04/07 07:24:21;;;;;;;68.10;38.42;;;;;;;;;;5109220;28;20114;-86
2022/04/07 07:26:47;;;;;;;54.03;32.42;;;;;;;;;;5109407;28;20039;-88
2022/04/07 07:29:13;;;;;;;52.72;31.40;;;;;;;;;;5091066;28;20020;-87
2022/04/07 07:31:39;;;;;;;55.40;32.60;;;;;;;;;;5109374;28;20031;-88
2022/04/07 07:34:05;;;;;;;50.38;30.70;;;;;;;;;;5091195;28;20031;-87
2022/04/07 07:36:31;;;;;;;45.90;27.58;;;;;;;;;;5091995;28;20024;-89
2022/04/07 07:38:57;;;;;;;27.50;17.75;;;;;;;;;;5090906;28;20611;-88
2022/04/07 07:41:23;;;;;;;41.55;20.70;;;;;;;;;;5109264;28;20374;-89
2022/04/07 07:43:50;;;;;;;38.88;20.13;;;;;;;;;;5090985;28;20047;-87
2022/04/07 07:46:16;;;;;;;55.53;32.75;;;;;;;;;;5090899;28;20043;-87
2022/04/07 07:48:42;;;;;;;38.90;18.83;;;;;;;;;;5109294;28;20094;-88
2022/04/07 07:51:08;;;;;;;25.42;15.32;;;;;;;;;;5109429;28;20034;-89
2022/04/07 07:53:34;;;;;;;134.82;58.88;;;;;;;;;;5090927;28;20069;-87
2022/04/07 07:56:01;;;;;;;111.55;52.15;;;;;;;;;;5110092;28;20028;-88
2022/04/07 07:58:27;;;;;;;180.02;70.00;;;;;;;;;;5090931;28;20023;-87
2022/04/07 08:00:54;;;;;;;173.13;68.75;;;;;;;;;;5109271;28;20414;-87
2022/04/07 08:03:20;;;;;;;103.25;49.95;;;;;;;;;;5109171;28;20027;-89
2022/04/07 08:05:46;;;;;;;89.18;44.92;;;;;;;;;;5109035;28;20491;-88
2022/04/07 08:08:12;;;;;;;102.25;48.15;;;;;;;;;;5111276;28;20471;-87
2022/04/07 08:10:38;;;;;;;99.78;48.83;;;;;;;;;;5113063;28;20027;-87
2022/04/07 08:13:05;;;;;;;99.70;47.85;;;;;;;;;;5113804;28;20031;-87
2022/04/07 08:15:32;;;;;;;107.78;49.45;;;;;;;;;;5095613;28;20068;-86
2022/04/07 08:17:58;;;;;;;84.47;43.33;;;;;;;;;;5094676;28;20027;-87
2022/04/07 08:20:24;;;;;;;87.30;43.67;;;;;;;;;;5112855;28;20026;-87
2022/04/07 08:22:50;;;;;;;101.65;48.25;;;;;;;;;;5112951;28;20027;-86
2022/04/07 08:25:16;;;;;;;93.32;45.83;;;;;;;;;;5112496;28;20383;-86
2022/04/07 08:27:42;;;;;;;95.13;47.35;;;;;;;;;;5112678;28;20016;-86
2022/04/07 08:30:09;;;;;;;71.63;40.38;;;;;;;;;;5112770;28;20498;-88
2022/04/07 08:32:35;;;;;;;116.53;53.65;;;;;;;;;;5113554;28;20027;-86
2022/04/07 08:35:02;;;;;;;171.48;66.57;;;;;;;;;;5094986;28;20012;-87
2022/04/07 08:37:28;;;;;;;84.82;44.47;;;;;;;;;;5112585;28;20031;-88
2022/04/07 08:39:54;;;;;;;195.48;73.68;;;;;;;;;;5112557;28;20020;-88
2022/04/07 08:42:23;;;;;;;65.70;35.30;;;;;;;;;;5094259;28;20031;-87
2022/04/07 08:44:49;;;;;;;156.10;64.32;;;;;;;;;;5112338;28;20046;-88
2022/04/07 08:47:18;;;;;;;133.18;55.95;;;;;;;;;;5112346;28;20031;-87
2022/04/07 08:49:45;;;;;;;48.75;28.25;;;;;;;;;;5112322;28;20024;-87
2022/04/07 08:52:12;;;;;;;48.17;26.02;;;;;;;;;;5093906;28;20031;-87
2022/04/07 08:54:38;;;;;;;41.42;24.02;;;;;;;;;;5112269;28;20026;-89
2022/04/07 08:57:04;;;;;;;43.55;26.38;;;;;;;;;;5094687;28;20027;-88
2022/04/07 08:59:30;;;;;;;32.08;19.30;;;;;;;;;;5093870;28;20016;-89
2022/04/07 09:02:01;;;;;;;50.90;27.63;;;;;;;;;;5111987;28;20032;-87
2022/04/07 09:04:30;;;;;;;43.30;22.08;;;;;;;;;;5112097;28;20553;-88
2022/04/07 09:06:56;;;;;;;43.65;22.45;;;;;;;;;;5111813;28;20027;-88
2022/04/07 09:09:22;;;;;;;34.58;16.17;;;;;;;;;;5093680;28;20031;-87
2022/04/07 09:11:55;;;;;;;26.60;14.88;;;;;;;;;;5111816;28;20475;-87
2022/04/07 09:14:21;;;;;;;162.75;65.05;;;;;;;;;;5093643;28;20072;-87
2022/04/07 09:16:48;;;;;;;221.45;81.47;;;;;;;;;;5093387;28;20016;-88
2022/04/07 09:19:14;;;;;;;35.13;19.10;;;;;;;;;;5111381;28;20023;-88
2022/04/07 09:21:40;;;;;;;256.58;91.28;;;;;;;;;;5111720;28;20061;-87
2022/04/07 09:24:07;;;;;;;233.45;83.38;;;;;;;;;;5112371;28;20032;-86
2022/04/07 09:26:39;;;;;;;36.17;23.30;;;;;;;;;;5111479;28;20031;-88
2022/04/07 09:29:09;;;;;;;33.85;21.50;;;;;;;;;;5094098;28;20031;-87
2022/04/07 09:31:51;;;;;;;25.83;18.25;;;;;;;;;;5094010;28;20038;-88
2022/04/07 09:34:29;;;;;;;39.13;24.50;;;;;;;;;;5111549;28;20096;-88
2022/04/07 09:37:07;;;;;;;169.63;68.43;;;;;;;;;;5111446;28;20019;-86
2022/04/07 09:39:36;;;;;;;17.05;11.95;;;;;;;;;;5111275;28;20083;-87
2022/04/07 09:42:17;;;;;;;9.88;8.77;;;;;;;;;;5111239;28;20375;-88
2022/04/07 09:44:43;;;;;;;8.23;6.47;;;;;;;;;;5111360;28;20027;-88
2022/04/07 09:47:12;;;;;;;4.68;3.33;;;;;;;;;;5111957;28;20503;-88
2022/04/07 09:49:39;;;;;;;67.13;32.45;;;;;;;;;;5093585;28;20032;-86
2022/04/07 09:52:05;;;;;;;10.23;9.18;;;;;;;;;;5110980;28;20034;-85
2022/04/07 09:54:34;;;;;;;25.08;21.13;;;;;;;;;;5110985;28;20024;-86
2022/04/07 09:57:00;;;;;;;181.02;71.40;;;;;;;;;;5110855;28;20018;-85
2022/04/07 09:59:28;;;;;;;30.30;22.23;;;;;;;;;;5110936;28;20030;-85
2022/04/07 10:01:55;;;;;;;26.20;19.92;;;;;;;;;;5110891;28;20012;-85
2022/04/07 10:04:24;;;;;;;244.07;89.45;;;;;;;;;;5110812;28;20023;-87
2022/04/07 10:06:51;;;;;;;178.07;71.53;;;;;;;;;;5110629;28;20063;-87
2022/04/07 10:09:17;;;;;;;9.40;6.10;;;;;;;;;;5092914;28;20024;-86
2022/04/07 10:11:43;;;;;;;5.07;3.25;;;;;;;;;;5111004;28;20020;-85
2022/04/07 10:14:09;;;;;;;5.47;3.08;;;;;;;;;;5093221;28;20019;-86
2022/04/07 10:16:35;;;;;;;9.18;4.38;;;;;;;;;;5110517;28;20080;-86
2022/04/07 10:19:27;;;;;;;8.02;4.30;;;;;;;;;;5110604;28;20061;-86
2022/04/07 10:21:55;;;;;;;8.70;5.70;;;;;;;;;;5106774;28;20035;-87
2022/04/07 10:24:33;;;;;;;7.60;5.17;;;;;;;;;;5110397;28;20024;-87
2022/04/07 10:27:03;;;;;;;48.17;33.00;;;;;;;;;;5092057;28;20638;-85
2022/04/07 10:29:30;;;;;;;6.85;3.92;;;;;;;;;;5109933;28;20052;-86
2022/04/07 10:32:11;;;;;;;5.47;3.83;;;;;;;;;;5109824;28;20031;-87
2022/04/07 10:34:37;;;;;;;4.25;1.95;;;;;;;;;;5110476;28;20015;-87
2022/04/07 10:37:06;;;;;;;2.65;2.05;;;;;;;;;;5110176;28;20069;-86
2022/04/07 10:39:37;;;;;;;7.00;4.15;;;;;;;;;;5110194;28;20016;-87
2022/04/07 10:42:05;;;;;;;7.22;2.45;;;;;;;;;;5109991;28;20518;-87
2022/04/07 10:44:31;;;;;;;24.43;19.37;;;;;;;;;;5091869;28;20030;-87
2022/04/07 10:47:03;;;;;;;6.32;3.45;;;;;;;;;;5109952;28;20035;-87
2022/04/07 10:49:30;;;;;;;6.00;3.63;;;;;;;;;;5109982;28;20479;-87
2022/04/07 10:51:57;;;;;;;6.15;3.33;;;;;;;;;;5109874;28;20038;-87
2022/04/07 10:54:24;;;;;;;6.32;2.75;;;;;;;;;;5091744;28;20097;-87
2022/04/07 10:56:51;;;;;;;3.85;2.60;;;;;;;;;;5109812;28;20016;-86
2022/04/07 10:59:21;;;;;;;5.13;2.88;;;;;;;;;;5091546;28;20077;-86
2022/04/07 11:01:53;;;;;;;5.85;3.10;;;;;;;;;;5109823;28;20051;-88
2022/04/07 11:04:20;;;;;;;7.60;4.50;;;;;;;;;;5109854;28;20026;-88
2022/04/07 11:07:04;;;;;;;4.50;3.67;;;;;;;;;;5091309;28;20510;-88
2022/04/07 11:09:49;;;;;;;7.95;3.40;;;;;;;;;;5109660;28;20020;-87
2022/04/07 11:12:25;;;;;;;2.55;1.40;;;;;;;;;;5092167;28;20157;-88
2022/04/07 11:14:56;;;;;;;6.18;3.35;;;;;;;;;;5109583;28;20032;-87
2022/04/07 11:17:28;;;;;;;107.03;53.60;;;;;;;;;;5109698;28;20020;-87
2022/04/07 11:20:00;;;;;;;74.80;42.13;;;;;;;;;;5109513;28;20387;-88
2022/04/07 11:22:45;;;;;;;181.23;73.32;;;;;;;;;;5109414;28;20028;-88
2022/04/07 11:25:13;;;;;;;185.43;74.10;;;;;;;;;;5110023;28;20032;-87
2022/04/07 11:27:43;;;;;;;155.77;65.10;;;;;;;;;;5091155;28;20036;-87
2022/04/07 11:30:12;;;;;;;201.13;77.35;;;;;;;;;;5109413;28;20157;-87
2022/04/07 11:32:41;;;;;;;144.07;61.88;;;;;;;;;;5091120;28;20035;-88
2022/04/07 11:35:13;;;;;;;6.43;5.78;;;;;;;;;;5091130;28;20032;-87
2022/04/07 11:37:40;;;;;;;57.20;36.60;;;;;;;;;;5091025;28;20019;-86
2022/04/07 11:40:07;;;;;;;134.57;59.63;;;;;;;;;;5109238;28;20365;-87
2022/04/07 11:42:33;;;;;;;174.27;70.10;;;;;;;;;;5112240;28;20023;-86
2022/04/07 11:45:00;;;;;;;198.77;76.93;;;;;;;;;;5113389;28;20134;-89
2022/04/07 11:47:26;;;;;;;13.23;6.78;;;;;;;;;;5113507;28;20024;-88
2022/04/07 11:49:52;;;;;;;109.03;53.17;;;;;;;;;;5113538;28;20104;-87
2022/04/07 11:52:25;;;;;;;179.45;71.07;;;;;;;;;;5113388;28;20030;-87
2022/04/07 11:54:58;;;;;;;197.38;75.90;;;;;;;;;;5113462;28;20023;-87
2022/04/07 11:57:25;;;;;;;170.77;67.25;;;;;;;;;;5113464;28;20041;-87
2022/04/07 11:59:54;;;;;;;179.40;70.63;;;;;;;;;;5095031;28;20019;-87
2022/04/07 12:02:21;;;;;;;165.70;66.70;;;;;;;;;;5094967;28;20023;-87
2022/04/07 12:04:48;;;;;;;166.35;66.68;;;;;;;;;;5095575;28;20016;-87
2022/04/07 12:07:14;;;;;;;170.82;68.82;;;;;;;;;;5114594;28;20042;-88
2022/04/07 12:09:40;;;;;;;173.25;69.07;;;;;;;;;;5113676;28;20099;-88
2022/04/07 12:12:06;;;;;;;190.30;73.93;;;;;;;;;;5113195;28;20059;-87
2022/04/07 12:14:32;;;;;;;180.60;71.35;;;;;;;;;;5113210;28;20024;-86
2022/04/07 12:16:59;;;;;;;185.60;72.10;;;;;;;;;;5113028;28;20028;-88
2022/04/07 12:19:26;;;;;;;80.57;43.67;;;;;;;;;;5112795;28;20024;-88
2022/04/07 12:21:53;;;;;;;189.48;73.40;;;;;;;;;;5112959;28;20107;-86
2022/04/07 12:24:19;;;;;;;188.60;73.60;;;;;;;;;;5094288;28;20514;-89
2022/04/07 12:26:49;;;;;;;174.02;69.32;;;;;;;;;;5094907;28;20035;-88
2022/04/07 12:29:16;;;;;;;5.72;3.65;;;;;;;;;;5113625;28;20510;-88
2022/04/07 12:31:42;;;;;;;170.00;68.20;;;;;;;;;;5112761;28;20035;-89
2022/04/07 12:34:09;;;;;;;195.60;75.28;;;;;;;;;;5112539;28;20046;-88
2022/04/07 12:36:38;;;;;;;203.80;77.90;;;;;;;;;;5112290;28;20032;-88
2022/04/07 12:39:09;;;;;;;191.20;73.93;;;;;;;;;;5094188;28;20024;-88
2022/04/07 12:41:46;;;;;;;183.32;72.13;;;;;;;;;;5093932;28;20031;-89
2022/04/07 12:44:17;;;;;;;120.70;55.93;;;;;;;;;;5093965;28;20479;-87
2022/04/07 12:46:53;;;;;;;176.95;70.45;;;;;;;;;;5094023;28;20487;-87
2022/04/07 12:49:26;;;;;;;179.32;71.40;;;;;;;;;;5094701;28;20103;-90
2022/04/07 12:52:07;;;;;;;198.90;76.07;;;;;;;;;;5094336;28;20028;-89
2022/04/07 12:54:34;;;;;;;223.88;83.30;;;;;;;;;;5094754;28;20023;-85
2022/04/07 12:57:07;;;;;;;98.10;46.92;;;;;;;;;;5113895;28;20024;-86
2022/04/07 12:59:33;;;;;;;228.93;85.40;;;;;;;;;;5112293;28;20016;-86
2022/04/07 13:01:59;;;;;;;248.57;90.22;;;;;;;;;;5112036;28;20476;-88
2022/04/07 13:04:44;;;;;;;135.95;60.40;;;;;;;;;;5112110;28;20026;-88
2022/04/07 13:07:10;;;;;;;257.85;90.75;;;;;;;;;;5111818;28;20020;-85
2022/04/07 13:09:37;;;;;;;229.77;84.28;;;;;;;;;;5093447;28;20027;-86
2022/04/07 13:12:03;;;;;;;236.52;86.28;;;;;;;;;;5111808;28;20475;-86
2022/04/07 13:14:29;;;;;;;241.35;86.97;;;;;;;;;;5111801;28;20028;-87
2022/04/07 13:16:55;;;;;;;245.75;90.18;;;;;;;;;;5112247;28;20031;-88
2022/04/07 13:19:21;;;;;;;325.55;108.68;;;;;;;;;;5112721;28;20483;-88
2022/04/07 13:21:47;;;;;;;222.00;83.80;;;;;;;;;;5112699;28;20051;-87
2022/04/07 13:24:14;;;;;;;411.17;132.20;;;;;;;;;;5093219;28;20028;-87
2022/04/07 13:26:41;;;;;;;671.70;229.00;;;;;;;;;;5111512;28;20449;-89
2022/04/07 13:29:07;;;;;;;716.90;246.40;;;;;;;;;;5093313;28;20080;-87
2022/04/07 13:31:33;;;;;;;770.92;269.92;;;;;;;;;;5111464;28;20373;-87
2022/04/07 13:34:01;;;;;;;811.50;285.98;;;;;;;;;;5111432;28;20464;-87
2022/04/07 13:36:27;;;;;;;831.17;290.63;;;;;;;;;;5093215;28;20027;-88
2022/04/07 13:38:53;;;;;;;908.78;315.73;;;;;;;;;;5093757;28;20526;-88
2022/04/07 13:41:19;;;;;;;665.67;228.55;;;;;;;;;;5093780;28;20490;-87
2022/04/07 13:43:45;;;;;;;688.17;240.45;;;;;;;;;;5111305;28;20031;-88
2022/04/07 13:46:11;;;;;;;699.88;246.18;;;;;;;;;;5111066;28;20043;-87
2022/04/07 13:48:38;;;;;;;654.05;233.93;;;;;;;;;;5111244;28;20390;-89
2022/04/07 13:51:04;;;;;;;5.03;1.92;;;;;;;;;;5092931;28;20023;-87
2022/04/07 13:53:30;;;;;;;4.95;2.65;;;;;;;;;;5092820;28;20024;-88
2022/04/07 13:55:56;;;;;;;4.75;2.60;;;;;;;;;;5110928;28;20070;-89
2022/04/07 13:58:22;;;;;;;5.20;2.30;;;;;;;;;;5093556;28;20471;-88
2022/04/07 14:00:48;;;;;;;7.93;2.00;;;;;;;;;;5111028;28;20085;-88
2022/04/07 14:03:14;;;;;;;5.43;1.95;;;;;;;;;;5110991;28;20359;-88
2022/04/07 14:05:40;;;;;;;8.48;2.65;;;;;;;;;;5109614;28;20089;-86
2022/04/07 14:08:08;;;;;;;482.67;156.50;;;;;;;;;;5110774;28;20024;-87
2022/04/07 14:10:35;;;;;;;6.28;1.52;;;;;;;;;;5092539;28;20019;-88
2022/04/07 14:13:01;;;;;;;8.55;1.35;;;;;;;;;;5092394;28;20487;-88